Time;durP1;ratioP1;P1;durP2;ratioP2;P2;SDS_P1;SDS_P2;PMS_P1;PMS_P2;Temp;Humidity;BMP_temperature;BMP_pressure;BME280_temperature;BME280_humidity;BME280_pressure;Samples;Min_cycle;Max_cycle;Signal;HPM_P1;HPM_P2
2023/09/10 00:00:37;;;;;;;26.10;11.50;;;;;;;14.22;49.76;100947.77;108144;1254;60304;-66
2023/09/10 00:03:05;;;;;;;27.20;11.20;;;;;;;14.16;49.71;100946.92;108146;1253;60307;-66
2023/09/10 00:05:32;;;;;;;24.50;11.00;;;;;;;14.16;49.71;100946.94;108150;1258;72609;-66
2023/09/10 00:08:00;;;;;;;22.10;11.20;;;;;;;14.05;49.75;100951.42;108136;1253;70507;-66
2023/09/10 00:10:28;;;;;;;29.50;10.30;;;;;;;14.13;49.69;100952.20;108141;1257;72574;-66
2023/09/10 00:12:56;;;;;;;23.50;11.20;;;;;;;14.11;49.42;100950.46;108092;1252;60876;-66
2023/09/10 00:15:23;;;;;;;25.10;10.70;;;;;;;14.08;49.53;100954.64;108135;1254;60294;-67
2023/09/10 00:17:52;;;;;;;20.60;10.40;;;;;;;13.97;49.75;100956.32;108195;1253;73816;-66
2023/09/10 00:20:19;;;;;;;20.60;10.20;;;;;;;13.90;49.87;100957.81;108104;1253;69220;-66
2023/09/10 00:22:47;;;;;;;24.60;10.00;;;;;;;13.93;49.70;100965.45;108089;1253;71469;-65
2023/09/10 00:25:15;;;;;;;21.90;9.80;;;;;;;13.85;49.88;100964.52;108116;1253;60437;-66
2023/09/10 00:27:43;;;;;;;20.70;9.30;;;;;;;13.85;50.02;100969.45;108154;1253;60403;-66
2023/09/10 00:30:11;;;;;;;23.50;10.20;;;;;;;13.80;50.32;100973.35;108106;1251;73927;-66
2023/09/10 00:32:38;;;;;;;24.40;10.30;;;;;;;13.85;50.19;100976.35;108193;1256;68288;-66
2023/09/10 00:35:08;;;;;;;18.50;9.60;;;;;;;13.91;50.13;100977.20;108250;1254;72676;-65
2023/09/10 00:37:36;;;;;;;23.40;11.40;;;;;;;13.87;50.27;100976.46;108154;1257;60255;-65
2023/09/10 00:40:05;;;;;;;25.00;10.80;;;;;;;13.78;50.38;100980.69;108260;1253;60589;-66
2023/09/10 00:42:33;;;;;;;21.50;10.00;;;;;;;13.66;50.63;100981.27;108374;1251;72574;-66
2023/09/10 00:45:00;;;;;;;20.50;9.60;;;;;;;13.59;50.83;100981.88;108322;1257;69016;-66
2023/09/10 00:47:27;;;;;;;20.70;9.30;;;;;;;13.66;50.86;100982.54;108323;1253;71414;-66
2023/09/10 00:49:55;;;;;;;21.20;9.80;;;;;;;13.78;50.81;100983.68;108290;1251;60712;-66
2023/09/10 00:52:22;;;;;;;22.70;10.50;;;;;;;13.83;50.53;100986.48;108078;1253;60381;-66
2023/09/10 00:54:50;;;;;;;21.80;10.80;;;;;;;13.73;50.62;100990.02;108173;1257;73906;-66
2023/09/10 00:57:17;;;;;;;23.60;10.30;;;;;;;13.64;50.70;100992.64;108216;1253;70106;-65
2023/09/10 00:59:44;;;;;;;23.70;10.20;;;;;;;13.59;50.74;100989.65;108211;1253;71430;-66
2023/09/10 01:02:14;;;;;;;23.90;11.30;;;;;;;13.56;51.03;100988.35;108209;1251;61261;-64
2023/09/10 01:04:41;;;;;;;23.30;11.30;;;;;;;13.46;51.16;100992.77;108090;1257;60671;-66
2023/09/10 01:07:09;;;;;;;23.30;11.50;;;;;;;13.40;51.23;100996.14;108049;1257;73875;-66
2023/09/10 01:09:36;;;;;;;22.50;10.80;;;;;;;13.41;51.01;100998.59;108208;1253;69881;-66
2023/09/10 01:12:22;;;;;;;27.70;11.70;;;;;;;13.41;50.85;100996.48;108049;1251;73105;-66
2023/09/10 01:15:09;;;;;;;21.90;11.40;;;;;;;13.40;50.79;100996.16;108105;1256;60852;-66
2023/09/10 01:17:43;;;;;;;28.60;12.10;;;;;;;13.30;50.94;101000.38;107927;1252;59172;-66
2023/09/10 01:20:23;;;;;;;22.70;12.00;;;;;;;13.20;51.07;100992.21;108160;1252;73771;-65
2023/09/10 01:23:20;;;;;;;20.20;11.50;;;;;;;13.16;51.30;100993.91;108148;1253;71846;-67
2023/09/10 01:25:48;;;;;;;22.50;12.00;;;;;;;13.08;51.45;100994.90;107967;1256;72949;-64
2023/09/10 01:28:15;;;;;;;25.30;12.50;;;;;;;13.11;51.33;100992.15;108128;1254;60399;-66
2023/09/10 01:30:43;;;;;;;22.50;11.90;;;;;;;12.99;51.53;100989.73;108130;1254;60426;-66
2023/09/10 01:33:30;;;;;;;22.30;11.40;;;;;;;12.98;51.59;100991.36;108206;1254;73903;-65
2023/09/10 01:36:18;;;;;;;25.40;12.10;;;;;;;13.00;51.46;100991.13;107947;1254;70462;-66
2023/09/10 01:39:16;;;;;;;23.40;12.20;;;;;;;13.08;51.31;100987.69;108062;1253;72899;-66
2023/09/10 01:41:43;;;;;;;20.80;11.40;;;;;;;13.09;51.28;100986.94;108203;1254;61384;-67
2023/09/10 01:44:11;;;;;;;23.80;11.60;;;;;;;13.03;51.42;100989.96;108073;1254;60274;-66
2023/09/10 01:46:38;;;;;;;22.20;12.20;;;;;;;12.93;51.57;100988.36;107975;1253;72575;-66
2023/09/10 01:49:08;;;;;;;24.30;12.70;;;;;;;12.86;51.72;100989.48;107982;1254;70967;-65
2023/09/10 01:51:35;;;;;;;26.80;12.40;;;;;;;12.88;51.66;100990.65;108016;1257;71694;-65
2023/09/10 01:54:03;;;;;;;24.70;11.70;;;;;;;12.80;51.73;100988.98;108141;1252;61524;-66
2023/09/10 01:56:30;;;;;;;24.50;12.60;;;;;;;12.60;52.07;100994.19;108151;1252;60355;-65
2023/09/10 01:58:58;;;;;;;25.10;11.60;;;;;;;12.33;52.69;100995.53;107990;1254;73862;-65
2023/09/10 02:01:25;;;;;;;25.10;13.40;;;;;;;12.38;52.60;100993.64;107988;1257;68858;-66
2023/09/10 02:03:53;;;;;;;26.40;12.70;;;;;;;12.45;52.54;100988.66;108208;1259;71841;-66
2023/09/10 02:06:20;;;;;;;24.40;12.40;;;;;;;12.51;52.45;100983.90;108081;1252;60845;-66
2023/09/10 02:08:48;;;;;;;29.20;12.70;;;;;;;12.58;52.29;100986.13;108088;1252;60463;-65
2023/09/10 02:11:15;;;;;;;23.50;12.30;;;;;;;12.72;51.98;100985.67;108175;1252;72591;-65
2023/09/10 02:13:45;;;;;;;24.90;12.60;;;;;;;12.72;51.97;100984.98;108174;1254;68811;-66
2023/09/10 02:16:13;;;;;;;23.20;11.20;;;;;;;12.66;51.96;100982.72;108074;1254;71658;-65
2023/09/10 02:18:41;;;;;;;19.30;11.30;;;;;;;12.68;52.01;100978.59;107964;1260;60637;-66
2023/09/10 02:21:09;;;;;;;23.70;11.20;;;;;;;12.64;52.07;100977.52;108148;1254;60520;-66
2023/09/10 02:23:38;;;;;;;24.30;10.30;;;;;;;12.61;52.14;100977.59;108102;1254;72552;-66
2023/09/10 02:26:05;;;;;;;21.70;10.90;;;;;;;12.59;52.22;100978.90;108183;1251;69924;-64
2023/09/10 02:28:32;;;;;;;23.80;11.60;;;;;;;12.50;52.41;100981.47;108227;1254;71396;-65
2023/09/10 02:31:07;;;;;;;23.10;12.10;;;;;;;12.42;52.63;100978.91;108239;1251;60858;-66
2023/09/10 02:33:35;;;;;;;22.50;11.10;;;;;;;12.45;52.52;100978.66;108273;1254;60415;-65
2023/09/10 02:36:02;;;;;;;20.10;10.70;;;;;;;12.45;52.50;100978.10;108102;1256;73656;-67
2023/09/10 02:38:31;;;;;;;18.20;9.90;;;;;;;12.41;52.48;100972.05;108181;1251;69319;-65
2023/09/10 02:41:00;;;;;;;24.70;11.30;;;;;;;12.43;52.52;100971.48;108239;1252;72952;-66
2023/09/10 02:43:28;;;;;;;24.80;11.30;;;;;;;12.48;52.42;100967.45;108142;1251;61245;-65
2023/09/10 02:45:55;;;;;;;21.70;11.10;;;;;;;12.34;52.71;100970.13;108033;1251;59009;-66
2023/09/10 02:48:23;;;;;;;18.40;10.50;;;;;;;12.40;52.65;100972.80;108031;1251;73812;-65
2023/09/10 02:50:50;;;;;;;20.60;11.00;;;;;;;12.35;52.80;100976.28;108102;1251;70881;-66
2023/09/10 02:53:18;;;;;;;19.70;9.80;;;;;;;12.25;52.94;100976.08;108013;1251;72958;-66
2023/09/10 02:55:45;;;;;;;18.80;9.50;;;;;;;12.25;52.99;100982.05;108054;1251;60498;-64
2023/09/10 02:58:12;;;;;;;20.30;10.60;;;;;;;12.31;53.01;100985.74;108102;1251;60255;-66
2023/09/10 03:00:40;;;;;;;19.60;9.20;;;;;;;12.28;53.01;100980.91;108167;1251;73969;-66
2023/09/10 03:03:07;;;;;;;21.20;10.00;;;;;;;12.27;53.10;100978.98;108056;1251;69108;-66
2023/09/10 03:05:35;;;;;;;18.90;10.70;;;;;;;12.32;53.11;100980.78;108159;1251;74482;-66
2023/09/10 03:08:02;;;;;;;20.10;11.00;;;;;;;12.29;53.15;100979.80;108177;1255;60959;-67
2023/09/10 03:10:30;;;;;;;20.20;10.80;;;;;;;12.29;53.25;100982.64;108120;1251;60360;-66
2023/09/10 03:12:57;;;;;;;21.30;10.80;;;;;;;12.27;53.17;100979.89;108193;1251;73827;-66
2023/09/10 03:15:25;;;;;;;21.10;10.40;;;;;;;12.14;53.34;100980.27;108123;1251;69499;-66
2023/09/10 03:17:52;;;;;;;20.10;10.60;;;;;;;11.96;53.68;100984.34;108175;1253;71540;-66
2023/09/10 03:20:20;;;;;;;25.30;11.50;;;;;;;12.02;53.58;100986.61;108076;1252;60886;-66
2023/09/10 03:22:47;;;;;;;21.10;10.80;;;;;;;12.03;53.59;100988.54;108130;1251;59931;-66
2023/09/10 03:25:15;;;;;;;22.80;10.80;;;;;;;11.86;54.04;100991.45;108055;1251;72260;-64
2023/09/10 03:27:43;;;;;;;23.50;10.80;;;;;;;11.87;53.99;100996.00;108101;1254;69152;-66
2023/09/10 03:30:10;;;;;;;18.20;9.70;;;;;;;11.94;53.98;100989.83;107983;1257;71122;-66
2023/09/10 03:32:38;;;;;;;17.20;10.00;;;;;;;12.02;53.79;100988.55;108091;1254;60396;-65
2023/09/10 03:35:06;;;;;;;18.30;9.20;;;;;;;11.97;53.90;100987.11;108000;1255;60057;-65
2023/09/10 03:37:33;;;;;;;22.90;10.60;;;;;;;11.96;54.07;100989.94;108062;1256;73784;-65
2023/09/10 03:40:04;;;;;;;23.30;9.50;;;;;;;12.05;53.97;100990.05;108099;1253;70046;-66
2023/09/10 03:42:33;;;;;;;14.80;9.10;;;;;;;12.10;54.16;100987.42;108108;1257;71428;-66
2023/09/10 03:45:01;;;;;;;19.80;9.10;;;;;;;12.24;53.84;100988.05;107976;1260;60990;-65
2023/09/10 03:47:29;;;;;;;16.40;9.40;;;;;;;12.33;53.56;100991.11;108084;1254;60313;-66
2023/09/10 03:49:56;;;;;;;16.60;9.30;;;;;;;12.39;53.49;100993.24;108035;1254;73891;-65
2023/09/10 03:52:24;;;;;;;19.20;8.90;;;;;;;12.30;53.68;100991.76;108062;1254;68829;-66
2023/09/10 03:54:51;;;;;;;15.30;8.50;;;;;;;12.33;53.81;100991.64;108121;1253;71900;-66
2023/09/10 03:57:19;;;;;;;18.00;9.60;;;;;;;12.40;53.62;100992.52;108039;1253;60298;-66
2023/09/10 03:59:46;;;;;;;19.30;9.60;;;;;;;12.43;53.77;100994.89;108063;1254;60432;-66
2023/09/10 04:02:14;;;;;;;21.60;10.00;;;;;;;12.84;54.05;100993.21;108008;1254;73734;-66
2023/09/10 04:04:41;;;;;;;18.80;8.30;;;;;;;13.23;53.48;100996.88;107981;1258;70153;-66
2023/09/10 04:07:09;;;;;;;14.80;8.40;;;;;;;13.61;52.77;100992.05;107702;1253;72675;-67
2023/09/10 04:09:37;;;;;;;16.10;8.20;;;;;;;14.16;52.28;100987.70;108098;1254;60816;-66
2023/09/10 04:12:04;;;;;;;14.60;8.20;;;;;;;14.81;51.44;100987.83;108142;1254;60338;-66
2023/09/10 04:14:32;;;;;;;13.20;7.80;;;;;;;15.43;50.39;100988.26;108133;1253;74106;-66
2023/09/10 04:16:59;;;;;;;15.60;7.80;;;;;;;16.11;49.08;100985.94;108089;1252;70499;-66
2023/09/10 04:19:27;;;;;;;14.70;6.90;;;;;;;16.55;47.87;100986.34;108150;1254;72686;-66
2023/09/10 04:21:55;;;;;;;13.30;7.40;;;;;;;17.07;46.59;100985.19;108115;1254;62195;-67
2023/09/10 04:24:23;;;;;;;12.40;6.60;;;;;;;17.61;45.23;100984.02;108151;1253;60190;-67
2023/09/10 04:26:51;;;;;;;14.80;6.90;;;;;;;18.18;44.10;100978.70;108094;1251;72265;-67
2023/09/10 04:29:18;;;;;;;14.60;7.10;;;;;;;18.85;42.47;100976.49;108109;1251;70262;-67
2023/09/10 04:31:46;;;;;;;11.60;6.60;;;;;;;19.46;41.52;100980.56;108038;1251;72633;-66
2023/09/10 04:34:13;;;;;;;10.20;6.20;;;;;;;20.04;40.40;100975.06;108142;1251;61688;-67
2023/09/10 04:36:41;;;;;;;14.20;7.20;;;;;;;20.56;39.68;100977.63;108100;1251;60547;-66
2023/09/10 04:39:09;;;;;;;10.20;6.00;;;;;;;21.00;38.27;100976.48;108149;1254;72638;-67
2023/09/10 04:41:39;;;;;;;12.40;7.20;;;;;;;21.42;37.61;100976.36;108119;1251;68930;-67
2023/09/10 04:44:06;;;;;;;11.50;6.50;;;;;;;21.77;36.71;100973.92;108046;1251;71847;-67
2023/09/10 04:46:34;;;;;;;13.40;6.70;;;;;;;22.18;36.25;100972.24;108067;1253;60402;-65
2023/09/10 04:49:02;;;;;;;13.00;7.00;;;;;;;22.69;35.20;100971.58;108096;1251;59996;-66
2023/09/10 04:51:29;;;;;;;15.00;7.20;;;;;;;23.15;34.52;100974.39;108055;1251;73802;-66
2023/09/10 04:53:57;;;;;;;11.70;6.80;;;;;;;23.67;33.61;100968.43;108144;1251;70090;-67
2023/09/10 04:56:24;;;;;;;14.20;7.00;;;;;;;23.97;33.42;100969.11;108035;1251;74747;-66
2023/09/10 05:01:35;;;;;;;10.60;6.80;;;;;;;23.39;34.01;100967.39;104962;1289;599544;-67
2023/09/10 05:04:03;;;;;;;12.80;7.40;;;;;;;24.39;32.08;100963.05;107260;1264;60079;-66
2023/09/10 05:06:31;;;;;;;13.70;7.70;;;;;;;24.53;31.58;100964.58;107238;1264;58731;-66
2023/09/10 05:08:58;;;;;;;13.90;7.80;;;;;;;24.52;31.80;100962.21;107310;1264;72499;-67
2023/09/10 05:11:26;;;;;;;14.80;7.30;;;;;;;24.66;31.81;100965.83;107279;1264;70275;-67
2023/09/10 05:13:53;;;;;;;26.60;7.80;;;;;;;25.17;31.35;100966.41;107266;1266;72025;-67
2023/09/10 05:16:21;;;;;;;23.00;7.70;;;;;;;25.87;30.50;100968.69;107292;1264;186565;-68
2023/09/10 05:18:48;;;;;;;14.00;7.70;;;;;;;26.30;30.09;100969.15;107455;1261;60468;-68
2023/09/10 05:21:17;;;;;;;14.40;7.90;;;;;;;26.88;29.20;100972.77;107439;1264;70460;-67
2023/09/10 05:23:45;;;;;;;14.00;7.80;;;;;;;27.33;28.63;100971.78;107445;1262;69000;-67
2023/09/10 05:26:12;;;;;;;16.30;8.20;;;;;;;27.73;27.89;100973.19;107997;1254;72670;-67
2023/09/10 05:28:39;;;;;;;16.10;8.20;;;;;;;28.08;27.55;100971.78;107786;1257;59513;-67
2023/09/10 05:31:10;;;;;;;;;;;;;;;28.56;27.04;100969.86;107868;1256;60176;-66
2023/09/10 05:33:39;;;;;;;15.60;7.90;;;;;;;28.85;26.49;100973.27;107970;1256;71802;-67
2023/09/10 05:36:07;;;;;;;12.20;7.10;;;;;;;29.04;26.21;100970.11;107840;1257;70627;-68
2023/09/10 05:38:34;;;;;;;11.90;7.10;;;;;;;29.49;25.50;100967.61;107850;1257;71888;-68
2023/09/10 05:41:03;;;;;;;15.50;6.50;;;;;;;29.63;25.31;100970.14;107811;1257;60607;-67
2023/09/10 05:43:31;;;;;;;12.30;6.40;;;;;;;29.81;25.00;100966.45;108056;1256;59586;-67
2023/09/10 05:45:59;;;;;;;9.10;6.20;;;;;;;29.92;24.74;100967.97;107881;1257;71944;-69
2023/09/10 05:48:26;;;;;;;16.00;6.10;;;;;;;30.08;24.48;100969.17;108040;1251;70026;-68
2023/09/10 05:50:57;;;;;;;14.40;6.10;;;;;;;30.29;24.34;100972.41;108212;1254;72405;-66
2023/09/10 05:53:27;;;;;;;10.60;5.70;;;;;;;30.69;23.99;100975.68;108035;1254;59900;-68
2023/09/10 05:55:55;;;;;;;9.30;5.10;;;;;;;31.09;23.77;100975.54;108276;1251;59949;-67
2023/09/10 05:58:24;;;;;;;10.40;5.10;;;;;;;31.46;23.32;100978.60;108107;1258;73727;-67
2023/09/10 06:00:52;;;;;;;10.90;5.30;;;;;;;31.70;22.87;100974.36;108145;1251;69064;-68
2023/09/10 06:03:19;;;;;;;8.50;5.50;;;;;;;31.77;22.72;100976.23;108030;1251;71440;-67
2023/09/10 06:05:48;;;;;;;8.20;4.80;;;;;;;32.06;22.72;100977.48;108037;1251;59594;-69
2023/09/10 06:08:16;;;;;;;10.10;4.50;;;;;;;32.51;22.27;100975.70;107963;1251;59432;-69
2023/09/10 06:10:44;;;;;;;5.70;3.70;;;;;;;32.82;21.70;100980.15;108195;1251;73505;-68
2023/09/10 06:13:12;;;;;;;7.10;3.80;;;;;;;32.85;21.56;100982.48;108130;1253;69987;-67
2023/09/10 06:15:39;;;;;;;9.10;4.00;;;;;;;33.10;21.27;100983.39;108157;1254;72735;-68
2023/09/10 06:18:07;;;;;;;8.00;3.50;;;;;;;33.29;20.86;100986.02;108107;1253;59583;-66
2023/09/10 06:20:35;;;;;;;6.60;3.20;;;;;;;33.42;20.67;100987.54;108223;1252;60061;-70
2023/09/10 06:23:03;;;;;;;3.70;2.60;;;;;;;33.45;20.68;100990.26;108248;1253;73110;-68
2023/09/10 06:25:32;;;;;;;3.90;2.50;;;;;;;33.78;20.04;100991.75;108201;1254;69076;-67
2023/09/10 06:27:59;;;;;;;4.70;2.60;;;;;;;34.08;19.79;100990.88;108135;1254;63738;-68
2023/09/10 06:30:27;;;;;;;4.70;2.40;;;;;;;34.21;19.72;100989.77;107755;1254;59167;-68
2023/09/10 06:32:56;;;;;;;3.50;2.00;;;;;;;34.46;19.47;100987.87;108161;1254;59544;-68
2023/09/10 06:35:23;;;;;;;3.40;1.50;;;;;;;34.79;18.89;100983.70;108069;1253;64320;-68
2023/09/10 06:37:51;;;;;;;2.10;1.30;;;;;;;34.87;18.16;100986.39;107959;1253;61845;-68
2023/09/10 06:40:19;;;;;;;5.50;1.60;;;;;;;34.74;18.20;100990.43;107954;1254;62428;-68
2023/09/10 06:42:46;;;;;;;2.50;2.00;;;;;;;34.95;18.35;100991.19;108042;1254;59614;-68
2023/09/10 06:45:27;;;;;;;3.10;1.60;;;;;;;35.30;18.35;100988.05;107937;1254;59569;-69
2023/09/10 06:47:55;;;;;;;4.30;1.70;;;;;;;35.46;17.96;100985.40;108190;1253;64239;-67
2023/09/10 06:50:22;;;;;;;3.00;1.40;;;;;;;35.69;17.54;100984.98;108100;1254;61595;-68
2023/09/10 06:52:50;;;;;;;2.30;1.30;;;;;;;35.81;17.78;100989.58;108086;1254;62440;-67
2023/09/10 06:55:17;;;;;;;2.60;1.50;;;;;;;36.31;17.42;100987.54;107984;1254;59666;-68
2023/09/10 06:57:44;;;;;;;3.00;1.60;;;;;;;36.78;16.81;100985.79;108127;1252;59042;-68
2023/09/10 07:00:13;;;;;;;2.70;1.60;;;;;;;36.75;16.54;100983.85;108035;1257;64145;-68
2023/09/10 07:02:40;;;;;;;3.00;1.60;;;;;;;35.99;16.71;100984.27;108185;1254;60345;-67
2023/09/10 07:05:07;;;;;;;3.00;1.80;;;;;;;35.60;17.14;100984.08;108086;1254;62712;-70
2023/09/10 07:07:36;;;;;;;3.40;1.60;;;;;;;35.32;17.55;100979.70;108060;1254;59640;-68
2023/09/10 07:10:03;;;;;;;2.90;1.60;;;;;;;35.29;17.87;100980.47;108090;1254;59400;-69
2023/09/10 07:12:31;;;;;;;2.20;1.30;;;;;;;35.86;17.38;100977.06;108143;1253;63036;-67
2023/09/10 07:14:58;;;;;;;5.80;2.50;;;;;;;36.36;17.03;100973.14;108110;1254;61407;-68
2023/09/10 07:17:26;;;;;;;3.20;1.50;;;;;;;36.65;16.40;100973.23;108089;1254;64026;-66
2023/09/10 07:19:54;;;;;;;2.60;1.10;;;;;;;36.16;16.45;100978.61;108080;1254;59640;-67
2023/09/10 07:22:21;;;;;;;2.70;1.30;;;;;;;35.21;16.94;100982.04;108117;1259;59714;-68
2023/09/10 07:24:49;;;;;;;2.90;1.50;;;;;;;34.44;17.71;100984.51;108144;1254;63903;-68
2023/09/10 07:27:16;;;;;;;2.30;1.20;;;;;;;34.40;17.93;100979.39;108208;1255;70311;-67
2023/09/10 07:29:44;;;;;;;5.90;1.50;;;;;;;34.49;17.80;100984.99;108109;1254;71357;-67
2023/09/10 07:32:11;;;;;;;5.80;1.60;;;;;;;34.43;17.70;100989.65;108147;1256;59592;-67
2023/09/10 07:34:38;;;;;;;6.10;1.20;;;;;;;34.55;17.89;100985.36;108190;1254;59500;-67
2023/09/10 07:37:06;;;;;;;1.70;1.10;;;;;;;34.76;17.90;100978.79;108199;1254;64194;-67
2023/09/10 07:39:36;;;;;;;2.50;1.50;;;;;;;35.13;17.54;100982.36;108233;1254;61387;-67
2023/09/10 07:42:03;;;;;;;2.50;1.80;;;;;;;35.11;17.22;100985.02;108212;1254;64678;-67
2023/09/10 07:44:31;;;;;;;6.10;3.00;;;;;;;34.95;17.32;100986.64;108284;1254;59572;-70
2023/09/10 07:46:58;;;;;;;3.50;1.30;;;;;;;34.55;17.66;100990.44;108303;1252;59509;-68
2023/09/10 07:49:26;;;;;;;3.00;1.60;;;;;;;34.43;17.75;100986.73;108274;1253;64291;-69
2023/09/10 07:51:53;;;;;;;3.00;1.50;;;;;;;34.55;17.60;100985.18;108110;1254;61378;-69
2023/09/10 07:54:21;;;;;;;2.70;1.10;;;;;;;34.70;17.51;100979.77;108189;1254;63725;-68
2023/09/10 07:56:49;;;;;;;2.50;1.40;;;;;;;35.10;17.40;100976.54;108170;1253;59621;-67
2023/09/10 07:59:17;;;;;;;4.20;1.70;;;;;;;35.37;17.01;100975.30;108154;1254;59458;-69
2023/09/10 08:01:44;;;;;;;3.90;2.00;;;;;;;35.20;17.06;100974.33;108114;1256;64127;-68
2023/09/10 08:04:12;;;;;;;4.20;2.10;;;;;;;35.02;17.23;100969.14;108169;1255;60335;-68
2023/09/10 08:06:39;;;;;;;7.50;2.10;;;;;;;34.58;17.39;100972.87;108120;1254;63813;-68
2023/09/10 08:09:07;;;;;;;5.20;1.70;;;;;;;34.41;17.44;100973.20;107973;1254;59471;-67
2023/09/10 08:11:35;;;;;;;3.10;2.10;;;;;;;34.37;17.71;100970.23;108128;1256;59649;-67
2023/09/10 08:14:02;;;;;;;2.40;1.60;;;;;;;34.61;17.83;100967.09;108096;1257;73979;-68
2023/09/10 08:16:30;;;;;;;4.00;1.50;;;;;;;34.81;17.60;100965.40;108067;1253;61420;-68
2023/09/10 08:18:58;;;;;;;3.90;1.40;;;;;;;34.80;17.00;100963.01;108009;1254;63969;-68
2023/09/10 08:21:26;;;;;;;2.30;1.50;;;;;;;34.54;17.09;100965.25;108000;1253;60029;-66
2023/09/10 08:23:53;;;;;;;2.60;1.50;;;;;;;34.10;17.71;100965.64;108073;1254;60008;-68
2023/09/10 08:26:21;;;;;;;2.50;1.60;;;;;;;33.60;18.13;100963.72;108102;1254;64111;-68
2023/09/10 08:28:48;;;;;;;3.40;1.50;;;;;;;33.76;18.14;100960.81;108068;1254;70151;-68
2023/09/10 08:31:16;;;;;;;42.10;24.10;;;;;;;33.99;17.88;100957.42;108097;1254;72708;-68
2023/09/10 08:33:43;;;;;;;2.90;1.30;;;;;;;34.30;17.59;100958.23;108084;1254;59570;-67
2023/09/10 08:36:11;;;;;;;3.30;1.50;;;;;;;34.22;17.49;100956.58;108059;1254;60195;-68
2023/09/10 08:38:38;;;;;;;3.00;1.70;;;;;;;34.04;17.92;100952.18;108054;1254;73533;-68
2023/09/10 08:41:15;;;;;;;5.10;2.30;;;;;;;33.95;18.20;100956.73;108239;1254;61542;-68
2023/09/10 08:44:10;;;;;;;2.70;1.60;;;;;;;33.84;18.28;100953.55;107987;1253;71490;-71
2023/09/10 08:46:37;;;;;;;1.80;1.10;;;;;;;34.02;18.07;100955.09;107978;1254;59108;-68
2023/09/10 08:49:06;;;;;;;2.40;1.50;;;;;;;34.49;17.78;100954.76;108053;1254;62704;-68
2023/09/10 08:51:34;;;;;;;2.60;1.40;;;;;;;35.00;17.27;100947.73;108055;1253;62923;-68
2023/09/10 08:54:01;;;;;;;3.40;1.90;;;;;;;35.21;16.50;100951.83;108102;1254;60102;-68
2023/09/10 08:56:29;;;;;;;2.40;1.70;;;;;;;35.01;16.67;100951.61;108203;1252;62603;-68
2023/09/10 08:58:57;;;;;;;3.50;1.70;;;;;;;34.75;16.92;100953.48;108173;1254;57602;-67
2023/09/10 09:01:25;;;;;;;4.60;2.00;;;;;;;34.92;16.86;100952.17;108187;1254;59650;-68
2023/09/10 09:03:52;;;;;;;3.10;1.60;;;;;;;35.34;16.58;100947.69;108227;1259;64240;-67
2023/09/10 09:06:20;;;;;;;3.70;1.50;;;;;;;35.72;16.20;100942.52;108267;1254;61556;-68
2023/09/10 09:08:50;;;;;;;3.30;1.40;;;;;;;35.68;15.84;100941.86;108240;1254;62581;-68
2023/09/10 09:11:17;;;;;;;2.00;1.20;;;;;;;35.04;16.06;100943.52;108148;1254;60303;-68
2023/09/10 09:13:46;;;;;;;4.10;2.70;;;;;;;34.86;16.55;100938.70;108104;1253;60282;-68
2023/09/10 09:16:15;;;;;;;3.20;1.60;;;;;;;35.10;16.67;100936.16;108139;1254;64957;-68
2023/09/10 09:18:42;;;;;;;4.00;1.60;;;;;;;35.58;16.47;100931.26;108131;1259;62332;-69
2023/09/10 09:21:17;;;;;;;3.00;1.70;;;;;;;35.92;16.24;100927.98;108031;1254;63768;-70
2023/09/10 09:23:59;;;;;;;4.30;1.70;;;;;;;36.19;16.00;100927.89;108239;1254;60367;-68
2023/09/10 09:26:27;;;;;;;5.60;1.70;;;;;;;36.04;16.06;100928.08;108189;1253;60322;-68
2023/09/10 09:28:56;;;;;;;8.00;1.70;;;;;;;35.59;16.22;100929.19;108187;1256;65059;-68
2023/09/10 09:31:24;;;;;;;4.20;1.50;;;;;;;35.46;16.67;100926.45;108174;1254;60245;-68
2023/09/10 09:33:52;;;;;;;2.30;1.40;;;;;;;35.62;16.62;100924.89;108138;1254;62543;-67
2023/09/10 09:36:24;;;;;;;3.30;1.60;;;;;;;35.70;16.20;100922.28;108107;1255;62325;-69
2023/09/10 09:38:51;;;;;;;3.70;1.50;;;;;;;35.82;16.08;100919.34;108071;1254;60318;-67
2023/09/10 09:41:19;;;;;;;5.80;1.90;;;;;;;36.17;15.91;100912.20;108065;1254;63885;-69
2023/09/10 09:43:46;;;;;;;5.10;1.30;;;;;;;36.08;15.78;100915.65;108039;1254;61083;-70
2023/09/10 09:46:14;;;;;;;5.80;1.40;;;;;;;35.82;15.55;100912.39;108079;1254;63725;-69
2023/09/10 09:48:41;;;;;;;3.20;1.90;;;;;;;35.13;15.77;100911.80;108084;1259;60420;-69
2023/09/10 09:51:09;;;;;;;4.50;1.30;;;;;;;34.48;15.93;100910.29;108033;1254;60568;-68
2023/09/10 09:53:37;;;;;;;5.10;1.60;;;;;;;34.44;15.99;100907.33;108064;1258;63623;-70
2023/09/10 09:56:05;;;;;;;3.30;1.50;;;;;;;34.29;16.40;100905.98;108137;1254;61331;-69
2023/09/10 09:58:33;;;;;;;2.00;1.60;;;;;;;33.90;16.66;100907.40;108108;1254;72307;-69
2023/09/10 10:01:00;;;;;;;3.20;1.60;;;;;;;33.84;16.80;100908.16;108018;1254;60472;-69
2023/09/10 10:03:29;;;;;;;3.00;1.50;;;;;;;33.72;17.01;100907.66;108082;1254;60007;-69
2023/09/10 10:05:56;;;;;;;4.80;1.70;;;;;;;33.67;16.86;100909.48;108100;1258;63800;-68
2023/09/10 10:08:26;;;;;;;3.60;1.90;;;;;;;33.21;17.71;100907.02;107994;1259;70317;-68
2023/09/10 10:10:53;;;;;;;3.50;1.50;;;;;;;32.92;17.77;100899.29;108091;1255;71822;-68
2023/09/10 10:13:25;;;;;;;3.50;1.70;;;;;;;33.26;18.32;100898.42;108136;1254;60264;-68
2023/09/10 10:15:54;;;;;;;2.30;1.40;;;;;;;33.97;17.29;100895.90;108169;1257;60293;-68
2023/09/10 10:18:23;;;;;;;3.80;1.90;;;;;;;34.26;16.68;100888.41;108122;1259;63768;-69
2023/09/10 10:20:53;;;;;;;5.10;1.50;;;;;;;34.34;16.98;100886.27;108175;1254;61443;-68
2023/09/10 10:23:21;;;;;;;2.80;1.30;;;;;;;34.61;16.66;100883.94;108114;1254;63779;-68
2023/09/10 10:25:53;;;;;;;5.10;1.70;;;;;;;34.94;16.16;100885.88;108163;1256;60846;-68
2023/09/10 10:28:21;;;;;;;3.70;1.50;;;;;;;34.60;16.39;100883.05;108232;1257;59148;-68
2023/09/10 10:30:54;;;;;;;4.60;1.70;;;;;;;34.58;16.37;100878.58;108208;1254;64864;-69
2023/09/10 10:33:23;;;;;;;3.10;1.70;;;;;;;34.62;15.93;100873.56;108267;1259;61463;-68
2023/09/10 10:36:15;;;;;;;3.10;2.00;;;;;;;34.45;16.34;100875.19;108174;1259;63670;-68
2023/09/10 10:38:43;;;;;;;4.60;1.70;;;;;;;34.20;16.80;100871.31;108177;1257;60499;-68
2023/09/10 10:41:16;;;;;;;4.30;1.70;;;;;;;34.21;16.69;100870.38;108204;1253;60319;-67
2023/09/10 10:43:59;;;;;;;2.40;1.60;;;;;;;34.34;16.84;100868.90;108146;1255;65040;-69
2023/09/10 10:46:27;;;;;;;2.00;1.70;;;;;;;34.62;16.40;100865.79;108206;1254;61451;-68
2023/09/10 10:48:54;;;;;;;3.20;2.00;;;;;;;34.61;16.14;100863.77;108207;1254;62447;-69
2023/09/10 10:51:21;;;;;;;3.10;1.50;;;;;;;34.44;16.41;100866.23;108191;1255;60286;-69
2023/09/10 10:53:49;;;;;;;3.60;1.50;;;;;;;34.29;16.40;100861.50;108133;1255;60424;-69
2023/09/10 10:56:17;;;;;;;5.40;1.80;;;;;;;34.28;16.58;100860.90;108054;1254;63766;-68
2023/09/10 10:58:45;;;;;;;5.00;1.60;;;;;;;34.22;16.80;100855.33;108149;1254;60427;-68
2023/09/10 11:01:13;;;;;;;3.90;1.70;;;;;;;34.12;16.93;100854.23;107958;1257;62463;-68
2023/09/10 11:03:42;;;;;;;1.90;1.50;;;;;;;34.14;17.00;100850.20;108187;1254;60401;-68
2023/09/10 11:06:10;;;;;;;2.50;1.70;;;;;;;34.21;16.94;100841.98;108073;1257;59585;-68
2023/09/10 11:08:41;;;;;;;5.30;2.30;;;;;;;34.19;17.15;100839.91;108208;1253;65736;-68
2023/09/10 11:11:29;;;;;;;3.90;1.90;;;;;;;34.04;17.21;100839.89;108154;1254;61382;-68
2023/09/10 11:13:58;;;;;;;2.30;1.70;;;;;;;33.73;17.31;100840.12;108172;1253;63799;-69
2023/09/10 11:16:34;;;;;;;4.20;1.90;;;;;;;33.51;17.40;100841.78;108222;1254;60293;-68
2023/09/10 11:19:03;;;;;;;4.30;1.60;;;;;;;33.44;17.59;100837.45;108206;1254;60302;-67
2023/09/10 11:21:55;;;;;;;3.30;1.70;;;;;;;33.55;17.61;100831.38;108189;1254;73138;-68